OIZC

Details ICAO OIZC (ZBR)
Name CHAH BAHAR
Region Iran
Timezone Asia/Tehran (UTC+3.5)
Plans Departing 12
Arriving 14
Stats Elevation 43 ft / 13 m (AMSL)
Location 25.443349° 60.382115°
Runways 2
Magnetic Variation 1.575° E
Sunrise 2017-02-21 02:30:08 UTC / 2017-02-21 06:00:08 Local
Sunset 2017-02-21 13:57:00 UTC / 2017-02-21 17:27:00 Local
Advertisement - Login to hide

Runways

ID Width Length Bearing (true) Bearing (mag) Surface Threshold Offset Overrun Length
09L 150 ft / 46 m 12,496 ft / 3,809 m 90.91° 89.33° Asphalt 0 ft / 0 m 1,181 ft / 360 m
09R 150 ft / 46 m 9,829 ft / 2,996 m 90.93° 89.35° Asphalt 0 ft / 0 m 1,181 ft / 360 m
27L 150 ft / 46 m 9,829 ft / 2,996 m 270.94° 269.36° Asphalt 0 ft / 0 m 1,181 ft / 360 m
27R 150 ft / 46 m 12,496 ft / 3,809 m 270.93° 269.35° Asphalt 0 ft / 0 m 1,181 ft / 360 m

Map

Weather

Temperature
Clouds and Precipitation
Forecast for 2017-02-21 00:00 UTC. Updated an hour ago
Winds

METAR

Not found

TAF

TAF OIZC 201700Z 2018/2124 21007MPS 2500 SA FEW030CB SCT035 BKN090 BECMG 2022/2024 03003MPS 3500 HZ BR FEW030 SCT100 BECMG 2110/2112 19007MPS 4500 HZ TEMPO 2111/2118 1500 SA TS FEW030CB SCT035 BKN090 BECMG 2118/2120 29003MPS 3000 HZ BR FEW030

Frequencies

Tower 121.70 MHz TWR
Approach 134.10 MHz APP
Tower 125.20 MHz TWR
Warning: Do not use this data for real-world aviation or navigation. No guarantee of current accuracy is given.